sensor_id;sensor_type;location;lat;lon;timestamp;P1;durP1;ratioP1;P2;durP2;ratioP2
41921;SDS011;27609;51.002;5.354;2022-08-19T00:00:58;24.15;;;21.83;;
41921;SDS011;27609;51.002;5.354;2022-08-19T00:03:34;25.33;;;22.83;;
41921;SDS011;27609;51.002;5.354;2022-08-19T00:06:00;24.55;;;22.15;;
41921;SDS011;27609;51.002;5.354;2022-08-19T00:08:30;24.83;;;22.35;;
41921;SDS011;27609;51.002;5.354;2022-08-19T00:11:01;24.95;;;21.88;;
41921;SDS011;27609;51.002;5.354;2022-08-19T00:13:35;24.30;;;21.75;;
41921;SDS011;27609;51.002;5.354;2022-08-19T00:16:13;22.75;;;20.42;;
41921;SDS011;27609;51.002;5.354;2022-08-19T00:18:40;23.52;;;21.13;;
41921;SDS011;27609;51.002;5.354;2022-08-19T00:21:29;22.02;;;19.63;;
41921;SDS011;27609;51.002;5.354;2022-08-19T00:23:58;21.92;;;19.70;;
41921;SDS011;27609;51.002;5.354;2022-08-19T00:26:27;23.00;;;20.27;;
41921;SDS011;27609;51.002;5.354;2022-08-19T00:28:55;21.60;;;19.55;;
41921;SDS011;27609;51.002;5.354;2022-08-19T00:31:21;21.55;;;19.30;;
41921;SDS011;27609;51.002;5.354;2022-08-19T00:34:00;20.58;;;18.58;;
41921;SDS011;27609;51.002;5.354;2022-08-19T00:36:27;21.77;;;19.67;;
41921;SDS011;27609;51.002;5.354;2022-08-19T00:38:58;23.15;;;20.95;;
41921;SDS011;27609;51.002;5.354;2022-08-19T00:41:24;24.50;;;22.00;;
41921;SDS011;27609;51.002;5.354;2022-08-19T00:43:59;24.48;;;21.90;;
41921;SDS011;27609;51.002;5.354;2022-08-19T00:46:56;20.88;;;18.83;;
41921;SDS011;27609;51.002;5.354;2022-08-19T00:49:37;22.75;;;19.42;;
41921;SDS011;27609;51.002;5.354;2022-08-19T00:52:34;24.13;;;18.92;;
41921;SDS011;27609;51.002;5.354;2022-08-19T00:55:05;21.08;;;18.83;;
41921;SDS011;27609;51.002;5.354;2022-08-19T00:57:37;22.48;;;20.33;;
41921;SDS011;27609;51.002;5.354;2022-08-19T01:00:10;22.98;;;20.75;;
41921;SDS011;27609;51.002;5.354;2022-08-19T01:02:46;25.40;;;22.80;;
41921;SDS011;27609;51.002;5.354;2022-08-19T01:05:22;25.25;;;22.73;;
41921;SDS011;27609;51.002;5.354;2022-08-19T01:07:52;23.02;;;20.83;;
41921;SDS011;27609;51.002;5.354;2022-08-19T01:10:20;24.40;;;21.85;;
41921;SDS011;27609;51.002;5.354;2022-08-19T01:12:50;27.98;;;24.80;;
41921;SDS011;27609;51.002;5.354;2022-08-19T01:15:22;29.58;;;24.45;;
41921;SDS011;27609;51.002;5.354;2022-08-19T01:18:08;27.58;;;23.80;;
41921;SDS011;27609;51.002;5.354;2022-08-19T01:20:39;26.10;;;23.33;;
41921;SDS011;27609;51.002;5.354;2022-08-19T01:23:07;30.00;;;24.83;;
41921;SDS011;27609;51.002;5.354;2022-08-19T01:25:44;31.48;;;26.10;;
41921;SDS011;27609;51.002;5.354;2022-08-19T01:28:19;29.00;;;25.45;;
41921;SDS011;27609;51.002;5.354;2022-08-19T01:30:47;27.40;;;24.52;;
41921;SDS011;27609;51.002;5.354;2022-08-19T01:33:16;28.58;;;22.00;;
41921;SDS011;27609;51.002;5.354;2022-08-19T01:35:42;23.70;;;21.20;;
41921;SDS011;27609;51.002;5.354;2022-08-19T01:38:19;26.10;;;23.33;;
41921;SDS011;27609;51.002;5.354;2022-08-19T01:40:55;24.23;;;21.75;;
41921;SDS011;27609;51.002;5.354;2022-08-19T01:43:24;26.63;;;23.75;;
41921;SDS011;27609;51.002;5.354;2022-08-19T01:48:23;24.55;;;21.98;;
41921;SDS011;27609;51.002;5.354;2022-08-19T01:50:52;30.02;;;24.08;;
41921;SDS011;27609;51.002;5.354;2022-08-19T01:53:19;26.73;;;23.65;;
41921;SDS011;27609;51.002;5.354;2022-08-19T01:55:45;28.38;;;23.80;;
41921;SDS011;27609;51.002;5.354;2022-08-19T01:58:21;29.85;;;25.17;;
41921;SDS011;27609;51.002;5.354;2022-08-19T02:03:41;30.08;;;25.42;;
41921;SDS011;27609;51.002;5.354;2022-08-19T02:06:36;27.00;;;24.20;;
41921;SDS011;27609;51.002;5.354;2022-08-19T02:09:05;25.33;;;22.67;;
41921;SDS011;27609;51.002;5.354;2022-08-19T02:11:34;32.05;;;26.45;;
41921;SDS011;27609;51.002;5.354;2022-08-19T02:14:05;31.70;;;26.98;;
41921;SDS011;27609;51.002;5.354;2022-08-19T02:16:36;32.72;;;24.25;;
41921;SDS011;27609;51.002;5.354;2022-08-19T02:19:04;28.70;;;25.38;;
41921;SDS011;27609;51.002;5.354;2022-08-19T02:21:33;31.50;;;24.98;;
41921;SDS011;27609;51.002;5.354;2022-08-19T02:24:01;33.90;;;26.30;;
41921;SDS011;27609;51.002;5.354;2022-08-19T02:26:27;40.13;;;27.90;;
41921;SDS011;27609;51.002;5.354;2022-08-19T02:28:56;40.40;;;29.25;;
41921;SDS011;27609;51.002;5.354;2022-08-19T02:31:25;45.92;;;29.35;;
41921;SDS011;27609;51.002;5.354;2022-08-19T02:33:53;35.85;;;27.50;;
41921;SDS011;27609;51.002;5.354;2022-08-19T02:36:21;39.95;;;30.98;;
41921;SDS011;27609;51.002;5.354;2022-08-19T02:38:50;38.58;;;28.52;;
41921;SDS011;27609;51.002;5.354;2022-08-19T02:41:21;41.90;;;31.55;;
41921;SDS011;27609;51.002;5.354;2022-08-19T02:43:50;41.42;;;28.92;;
41921;SDS011;27609;51.002;5.354;2022-08-19T02:46:20;43.25;;;32.22;;
41921;SDS011;27609;51.002;5.354;2022-08-19T02:48:51;48.47;;;33.17;;
41921;SDS011;27609;51.002;5.354;2022-08-19T02:51:27;48.40;;;34.00;;
41921;SDS011;27609;51.002;5.354;2022-08-19T02:53:57;54.55;;;34.45;;
41921;SDS011;27609;51.002;5.354;2022-08-19T02:56:39;52.22;;;34.10;;
41921;SDS011;27609;51.002;5.354;2022-08-19T02:59:06;52.42;;;35.00;;
41921;SDS011;27609;51.002;5.354;2022-08-19T03:01:34;55.45;;;37.25;;
41921;SDS011;27609;51.002;5.354;2022-08-19T03:04:04;56.38;;;35.83;;
41921;SDS011;27609;51.002;5.354;2022-08-19T03:06:43;52.97;;;36.65;;
41921;SDS011;27609;51.002;5.354;2022-08-19T03:09:11;56.55;;;37.97;;
41921;SDS011;27609;51.002;5.354;2022-08-19T03:11:40;55.67;;;35.85;;
41921;SDS011;27609;51.002;5.354;2022-08-19T03:14:09;52.67;;;35.58;;
41921;SDS011;27609;51.002;5.354;2022-08-19T03:16:42;60.97;;;36.80;;
41921;SDS011;27609;51.002;5.354;2022-08-19T03:19:10;57.35;;;35.78;;
41921;SDS011;27609;51.002;5.354;2022-08-19T03:21:46;58.42;;;37.47;;
41921;SDS011;27609;51.002;5.354;2022-08-19T03:24:14;57.75;;;38.08;;
41921;SDS011;27609;51.002;5.354;2022-08-19T03:26:52;67.07;;;38.92;;
41921;SDS011;27609;51.002;5.354;2022-08-19T03:29:22;61.97;;;39.75;;
41921;SDS011;27609;51.002;5.354;2022-08-19T03:31:48;59.00;;;37.78;;
41921;SDS011;27609;51.002;5.354;2022-08-19T03:34:26;59.20;;;37.75;;
41921;SDS011;27609;51.002;5.354;2022-08-19T03:37:02;58.28;;;36.63;;
41921;SDS011;27609;51.002;5.354;2022-08-19T03:39:31;61.88;;;37.15;;
41921;SDS011;27609;51.002;5.354;2022-08-19T03:41:57;56.00;;;36.08;;
41921;SDS011;27609;51.002;5.354;2022-08-19T03:44:24;59.22;;;34.53;;
41921;SDS011;27609;51.002;5.354;2022-08-19T03:46:57;58.80;;;37.15;;
41921;SDS011;27609;51.002;5.354;2022-08-19T03:49:25;57.60;;;38.10;;
41921;SDS011;27609;51.002;5.354;2022-08-19T03:51:57;58.85;;;35.33;;
41921;SDS011;27609;51.002;5.354;2022-08-19T03:54:35;56.65;;;34.90;;
41921;SDS011;27609;51.002;5.354;2022-08-19T03:57:02;63.67;;;37.67;;
41921;SDS011;27609;51.002;5.354;2022-08-19T03:59:44;60.28;;;36.40;;
41921;SDS011;27609;51.002;5.354;2022-08-19T04:02:10;63.78;;;37.33;;
41921;SDS011;27609;51.002;5.354;2022-08-19T04:04:40;59.77;;;36.83;;
41921;SDS011;27609;51.002;5.354;2022-08-19T04:07:13;63.53;;;35.97;;
41921;SDS011;27609;51.002;5.354;2022-08-19T04:09:41;53.53;;;33.72;;
41921;SDS011;27609;51.002;5.354;2022-08-19T04:12:10;59.13;;;35.65;;
41921;SDS011;27609;51.002;5.354;2022-08-19T04:14:41;57.10;;;35.58;;
41921;SDS011;27609;51.002;5.354;2022-08-19T04:17:10;59.53;;;35.28;;
41921;SDS011;27609;51.002;5.354;2022-08-19T04:19:36;62.70;;;37.15;;
41921;SDS011;27609;51.002;5.354;2022-08-19T04:22:04;60.50;;;34.08;;
41921;SDS011;27609;51.002;5.354;2022-08-19T04:24:38;64.57;;;37.88;;
41921;SDS011;27609;51.002;5.354;2022-08-19T04:27:06;60.85;;;36.22;;
41921;SDS011;27609;51.002;5.354;2022-08-19T04:29:40;64.32;;;36.83;;
41921;SDS011;27609;51.002;5.354;2022-08-19T04:32:08;65.93;;;38.03;;
41921;SDS011;27609;51.002;5.354;2022-08-19T04:34:37;64.40;;;37.05;;
41921;SDS011;27609;51.002;5.354;2022-08-19T04:37:07;65.72;;;36.78;;
41921;SDS011;27609;51.002;5.354;2022-08-19T04:39:37;67.70;;;39.40;;
41921;SDS011;27609;51.002;5.354;2022-08-19T04:42:22;63.50;;;38.28;;
41921;SDS011;27609;51.002;5.354;2022-08-19T04:45:08;61.95;;;36.58;;
41921;SDS011;27609;51.002;5.354;2022-08-19T04:47:36;65.90;;;38.47;;
41921;SDS011;27609;51.002;5.354;2022-08-19T04:50:03;62.80;;;36.58;;
41921;SDS011;27609;51.002;5.354;2022-08-19T04:52:29;52.88;;;33.03;;
41921;SDS011;27609;51.002;5.354;2022-08-19T04:54:56;57.08;;;34.63;;
41921;SDS011;27609;51.002;5.354;2022-08-19T04:57:23;56.97;;;33.17;;
41921;SDS011;27609;51.002;5.354;2022-08-19T04:59:48;52.70;;;31.95;;
41921;SDS011;27609;51.002;5.354;2022-08-19T05:02:18;59.17;;;36.40;;
41921;SDS011;27609;51.002;5.354;2022-08-19T05:04:44;59.15;;;33.90;;
41921;SDS011;27609;51.002;5.354;2022-08-19T05:07:22;51.75;;;32.53;;
41921;SDS011;27609;51.002;5.354;2022-08-19T05:09:47;54.40;;;32.70;;
41921;SDS011;27609;51.002;5.354;2022-08-19T05:12:18;60.10;;;34.58;;
41921;SDS011;27609;51.002;5.354;2022-08-19T05:14:46;59.35;;;32.72;;
41921;SDS011;27609;51.002;5.354;2022-08-19T05:17:16;62.17;;;36.97;;
41921;SDS011;27609;51.002;5.354;2022-08-19T05:19:42;64.00;;;38.05;;
41921;SDS011;27609;51.002;5.354;2022-08-19T05:22:26;64.60;;;38.13;;
41921;SDS011;27609;51.002;5.354;2022-08-19T05:25:05;66.05;;;37.20;;
41921;SDS011;27609;51.002;5.354;2022-08-19T05:27:43;64.93;;;38.05;;
41921;SDS011;27609;51.002;5.354;2022-08-19T05:30:10;64.55;;;38.05;;
41921;SDS011;27609;51.002;5.354;2022-08-19T05:32:39;63.42;;;38.25;;
41921;SDS011;27609;51.002;5.354;2022-08-19T05:35:07;67.43;;;39.85;;
41921;SDS011;27609;51.002;5.354;2022-08-19T05:37:36;62.30;;;38.28;;
41921;SDS011;27609;51.002;5.354;2022-08-19T05:40:07;57.92;;;37.67;;
41921;SDS011;27609;51.002;5.354;2022-08-19T05:42:37;61.35;;;37.80;;
41921;SDS011;27609;51.002;5.354;2022-08-19T05:45:05;56.90;;;35.40;;
41921;SDS011;27609;51.002;5.354;2022-08-19T05:47:33;60.13;;;38.58;;
41921;SDS011;27609;51.002;5.354;2022-08-19T05:50:03;64.28;;;36.90;;
41921;SDS011;27609;51.002;5.354;2022-08-19T05:52:37;56.03;;;35.03;;
41921;SDS011;27609;51.002;5.354;2022-08-19T05:55:08;55.53;;;35.33;;
41921;SDS011;27609;51.002;5.354;2022-08-19T05:57:36;56.08;;;36.80;;
41921;SDS011;27609;51.002;5.354;2022-08-19T06:00:04;65.15;;;38.75;;
41921;SDS011;27609;51.002;5.354;2022-08-19T06:02:37;65.60;;;40.67;;
41921;SDS011;27609;51.002;5.354;2022-08-19T06:05:10;62.47;;;39.58;;
41921;SDS011;27609;51.002;5.354;2022-08-19T06:07:37;63.25;;;40.10;;
41921;SDS011;27609;51.002;5.354;2022-08-19T06:10:06;67.32;;;40.42;;
41921;SDS011;27609;51.002;5.354;2022-08-19T06:12:44;71.13;;;40.40;;
41921;SDS011;27609;51.002;5.354;2022-08-19T06:15:11;66.45;;;39.90;;
41921;SDS011;27609;51.002;5.354;2022-08-19T06:17:38;64.68;;;39.70;;
41921;SDS011;27609;51.002;5.354;2022-08-19T06:20:09;66.30;;;40.83;;
41921;SDS011;27609;51.002;5.354;2022-08-19T06:22:47;69.70;;;41.33;;
41921;SDS011;27609;51.002;5.354;2022-08-19T06:25:16;66.70;;;42.90;;
41921;SDS011;27609;51.002;5.354;2022-08-19T06:27:49;69.32;;;41.67;;
41921;SDS011;27609;51.002;5.354;2022-08-19T06:30:17;68.93;;;44.05;;
41921;SDS011;27609;51.002;5.354;2022-08-19T06:32:43;70.57;;;43.35;;
41921;SDS011;27609;51.002;5.354;2022-08-19T06:35:27;70.43;;;43.35;;
41921;SDS011;27609;51.002;5.354;2022-08-19T06:38:00;68.38;;;42.05;;
41921;SDS011;27609;51.002;5.354;2022-08-19T06:40:32;67.40;;;42.15;;
41921;SDS011;27609;51.002;5.354;2022-08-19T06:43:02;68.43;;;41.92;;
41921;SDS011;27609;51.002;5.354;2022-08-19T06:45:28;63.75;;;39.97;;
41921;SDS011;27609;51.002;5.354;2022-08-19T06:47:57;65.45;;;38.50;;
41921;SDS011;27609;51.002;5.354;2022-08-19T06:50:25;57.20;;;36.70;;
41921;SDS011;27609;51.002;5.354;2022-08-19T06:52:52;60.67;;;37.33;;
41921;SDS011;27609;51.002;5.354;2022-08-19T06:55:19;53.08;;;35.78;;
41921;SDS011;27609;51.002;5.354;2022-08-19T06:57:44;50.40;;;34.40;;
41921;SDS011;27609;51.002;5.354;2022-08-19T07:00:11;49.58;;;32.95;;
41921;SDS011;27609;51.002;5.354;2022-08-19T07:02:39;49.90;;;31.58;;
41921;SDS011;27609;51.002;5.354;2022-08-19T07:07:34;44.03;;;28.88;;
41921;SDS011;27609;51.002;5.354;2022-08-19T07:10:00;40.38;;;28.88;;
41921;SDS011;27609;51.002;5.354;2022-08-19T07:12:30;46.53;;;28.77;;
41921;SDS011;27609;51.002;5.354;2022-08-19T07:14:59;49.72;;;28.35;;
41921;SDS011;27609;51.002;5.354;2022-08-19T07:17:25;39.38;;;25.17;;
41921;SDS011;27609;51.002;5.354;2022-08-19T07:19:52;40.22;;;25.95;;
41921;SDS011;27609;51.002;5.354;2022-08-19T07:22:17;36.65;;;25.25;;
41921;SDS011;27609;51.002;5.354;2022-08-19T07:24:45;34.42;;;22.45;;
41921;SDS011;27609;51.002;5.354;2022-08-19T07:27:13;32.15;;;20.70;;
41921;SDS011;27609;51.002;5.354;2022-08-19T07:29:39;33.60;;;21.08;;
41921;SDS011;27609;51.002;5.354;2022-08-19T07:32:05;31.30;;;21.27;;
41921;SDS011;27609;51.002;5.354;2022-08-19T07:34:31;28.48;;;19.52;;
41921;SDS011;27609;51.002;5.354;2022-08-19T07:37:02;27.52;;;19.17;;
41921;SDS011;27609;51.002;5.354;2022-08-19T07:39:34;32.85;;;19.58;;
41921;SDS011;27609;51.002;5.354;2022-08-19T07:42:07;30.70;;;19.25;;
41921;SDS011;27609;51.002;5.354;2022-08-19T07:44:35;34.13;;;18.88;;
41921;SDS011;27609;51.002;5.354;2022-08-19T07:47:18;29.83;;;18.73;;
41921;SDS011;27609;51.002;5.354;2022-08-19T07:49:44;28.13;;;18.83;;
41921;SDS011;27609;51.002;5.354;2022-08-19T07:52:09;26.33;;;17.65;;
41921;SDS011;27609;51.002;5.354;2022-08-19T07:54:36;27.25;;;17.25;;
41921;SDS011;27609;51.002;5.354;2022-08-19T07:57:03;27.23;;;15.70;;
41921;SDS011;27609;51.002;5.354;2022-08-19T07:59:30;23.85;;;15.73;;
41921;SDS011;27609;51.002;5.354;2022-08-19T08:01:56;25.92;;;16.48;;
41921;SDS011;27609;51.002;5.354;2022-08-19T08:04:24;22.08;;;15.35;;
41921;SDS011;27609;51.002;5.354;2022-08-19T08:07:09;33.63;;;16.98;;
41921;SDS011;27609;51.002;5.354;2022-08-19T08:09:55;26.85;;;16.85;;
41921;SDS011;27609;51.002;5.354;2022-08-19T08:12:23;26.35;;;16.83;;
41921;SDS011;27609;51.002;5.354;2022-08-19T08:14:54;26.17;;;16.88;;
41921;SDS011;27609;51.002;5.354;2022-08-19T08:17:23;26.02;;;15.18;;
41921;SDS011;27609;51.002;5.354;2022-08-19T08:19:51;21.73;;;16.42;;
41921;SDS011;27609;51.002;5.354;2022-08-19T08:22:19;23.55;;;15.40;;
41921;SDS011;27609;51.002;5.354;2022-08-19T08:25:16;26.63;;;16.50;;
41921;SDS011;27609;51.002;5.354;2022-08-19T08:27:44;19.55;;;14.32;;
41921;SDS011;27609;51.002;5.354;2022-08-19T08:30:15;23.67;;;15.85;;
41921;SDS011;27609;51.002;5.354;2022-08-19T08:32:45;19.90;;;14.93;;
41921;SDS011;27609;51.002;5.354;2022-08-19T08:35:13;25.40;;;15.32;;
41921;SDS011;27609;51.002;5.354;2022-08-19T08:37:45;20.05;;;14.30;;
41921;SDS011;27609;51.002;5.354;2022-08-19T08:40:20;24.48;;;13.60;;
41921;SDS011;27609;51.002;5.354;2022-08-19T08:43:02;20.38;;;12.65;;
41921;SDS011;27609;51.002;5.354;2022-08-19T08:45:36;13.15;;;11.05;;
41921;SDS011;27609;51.002;5.354;2022-08-19T08:48:17;25.88;;;13.20;;
41921;SDS011;27609;51.002;5.354;2022-08-19T08:50:47;16.70;;;11.77;;
41921;SDS011;27609;51.002;5.354;2022-08-19T08:55:44;15.95;;;10.95;;
41921;SDS011;27609;51.002;5.354;2022-08-19T08:58:15;17.48;;;10.40;;
41921;SDS011;27609;51.002;5.354;2022-08-19T09:00:47;12.48;;;8.63;;
41921;SDS011;27609;51.002;5.354;2022-08-19T09:03:20;20.35;;;10.00;;
41921;SDS011;27609;51.002;5.354;2022-08-19T09:05:52;17.00;;;9.63;;
41921;SDS011;27609;51.002;5.354;2022-08-19T09:10:55;13.57;;;8.88;;
41921;SDS011;27609;51.002;5.354;2022-08-19T09:16:19;14.55;;;9.38;;
41921;SDS011;27609;51.002;5.354;2022-08-19T09:18:54;14.80;;;7.68;;
41921;SDS011;27609;51.002;5.354;2022-08-19T09:21:28;12.88;;;9.07;;
41921;SDS011;27609;51.002;5.354;2022-08-19T09:23:57;15.80;;;9.07;;
41921;SDS011;27609;51.002;5.354;2022-08-19T09:26:23;14.32;;;8.15;;
41921;SDS011;27609;51.002;5.354;2022-08-19T09:28:50;14.20;;;8.90;;
41921;SDS011;27609;51.002;5.354;2022-08-19T09:31:35;13.45;;;8.55;;
41921;SDS011;27609;51.002;5.354;2022-08-19T09:34:02;11.65;;;7.72;;
41921;SDS011;27609;51.002;5.354;2022-08-19T09:36:31;11.95;;;8.13;;
41921;SDS011;27609;51.002;5.354;2022-08-19T09:39:04;14.93;;;8.73;;
41921;SDS011;27609;51.002;5.354;2022-08-19T09:41:31;12.65;;;7.90;;
41921;SDS011;27609;51.002;5.354;2022-08-19T09:43:57;12.02;;;8.13;;
41921;SDS011;27609;51.002;5.354;2022-08-19T09:46:24;10.52;;;6.70;;
41921;SDS011;27609;51.002;5.354;2022-08-19T09:48:51;13.40;;;6.10;;
41921;SDS011;27609;51.002;5.354;2022-08-19T09:51:21;9.65;;;5.32;;
41921;SDS011;27609;51.002;5.354;2022-08-19T09:53:49;7.53;;;5.90;;
41921;SDS011;27609;51.002;5.354;2022-08-19T09:56:18;12.40;;;5.90;;
41921;SDS011;27609;51.002;5.354;2022-08-19T09:58:49;10.35;;;5.28;;
41921;SDS011;27609;51.002;5.354;2022-08-19T10:01:23;8.65;;;5.63;;
41921;SDS011;27609;51.002;5.354;2022-08-19T10:03:53;8.48;;;5.30;;
41921;SDS011;27609;51.002;5.354;2022-08-19T10:06:25;8.98;;;4.90;;
41921;SDS011;27609;51.002;5.354;2022-08-19T10:08:54;6.93;;;4.82;;
41921;SDS011;27609;51.002;5.354;2022-08-19T10:11:21;6.38;;;4.47;;
41921;SDS011;27609;51.002;5.354;2022-08-19T10:13:47;8.10;;;5.32;;
41921;SDS011;27609;51.002;5.354;2022-08-19T10:16:16;7.13;;;4.97;;
41921;SDS011;27609;51.002;5.354;2022-08-19T10:21:12;9.90;;;4.88;;
41921;SDS011;27609;51.002;5.354;2022-08-19T10:23:43;8.27;;;5.35;;
41921;SDS011;27609;51.002;5.354;2022-08-19T10:26:11;5.93;;;4.25;;
41921;SDS011;27609;51.002;5.354;2022-08-19T10:28:42;5.75;;;4.18;;
41921;SDS011;27609;51.002;5.354;2022-08-19T10:31:09;8.85;;;5.57;;
41921;SDS011;27609;51.002;5.354;2022-08-19T10:33:37;10.55;;;4.70;;
41921;SDS011;27609;51.002;5.354;2022-08-19T10:36:05;8.75;;;3.70;;
41921;SDS011;27609;51.002;5.354;2022-08-19T10:38:36;5.28;;;3.83;;
41921;SDS011;27609;51.002;5.354;2022-08-19T10:41:12;7.15;;;5.32;;
41921;SDS011;27609;51.002;5.354;2022-08-19T10:43:40;4.57;;;3.97;;
41921;SDS011;27609;51.002;5.354;2022-08-19T10:46:08;5.75;;;4.25;;
41921;SDS011;27609;51.002;5.354;2022-08-19T10:48:35;5.35;;;4.20;;
41921;SDS011;27609;51.002;5.354;2022-08-19T10:51:02;6.72;;;4.18;;
41921;SDS011;27609;51.002;5.354;2022-08-19T10:53:47;5.47;;;4.22;;
41921;SDS011;27609;51.002;5.354;2022-08-19T10:56:14;5.40;;;3.95;;
41921;SDS011;27609;51.002;5.354;2022-08-19T10:59:00;5.95;;;4.35;;
41921;SDS011;27609;51.002;5.354;2022-08-19T11:01:29;7.22;;;3.58;;
41921;SDS011;27609;51.002;5.354;2022-08-19T11:03:57;6.85;;;4.50;;
41921;SDS011;27609;51.002;5.354;2022-08-19T11:06:24;7.03;;;3.92;;
41921;SDS011;27609;51.002;5.354;2022-08-19T11:08:50;7.97;;;3.58;;
41921;SDS011;27609;51.002;5.354;2022-08-19T11:11:19;6.53;;;3.70;;
41921;SDS011;27609;51.002;5.354;2022-08-19T11:13:48;11.50;;;4.00;;
41921;SDS011;27609;51.002;5.354;2022-08-19T11:16:16;5.82;;;3.60;;
41921;SDS011;27609;51.002;5.354;2022-08-19T11:18:52;6.07;;;3.85;;
41921;SDS011;27609;51.002;5.354;2022-08-19T11:21:23;5.75;;;3.60;;
41921;SDS011;27609;51.002;5.354;2022-08-19T11:23:58;5.72;;;3.15;;
41921;SDS011;27609;51.002;5.354;2022-08-19T11:26:26;4.13;;;3.00;;
41921;SDS011;27609;51.002;5.354;2022-08-19T11:28:54;5.55;;;3.50;;
41921;SDS011;27609;51.002;5.354;2022-08-19T11:31:22;4.28;;;3.50;;
41921;SDS011;27609;51.002;5.354;2022-08-19T11:33:50;6.35;;;2.90;;
41921;SDS011;27609;51.002;5.354;2022-08-19T11:36:16;4.13;;;3.10;;
41921;SDS011;27609;51.002;5.354;2022-08-19T11:38:43;3.13;;;2.83;;
41921;SDS011;27609;51.002;5.354;2022-08-19T11:41:13;8.20;;;3.13;;
41921;SDS011;27609;51.002;5.354;2022-08-19T11:43:41;4.40;;;2.25;;
41921;SDS011;27609;51.002;5.354;2022-08-19T11:46:07;3.50;;;2.72;;
41921;SDS011;27609;51.002;5.354;2022-08-19T11:48:34;5.15;;;2.85;;
41921;SDS011;27609;51.002;5.354;2022-08-19T11:51:03;6.70;;;3.30;;
41921;SDS011;27609;51.002;5.354;2022-08-19T11:53:31;9.07;;;3.45;;
41921;SDS011;27609;51.002;5.354;2022-08-19T11:55:58;5.35;;;3.42;;
41921;SDS011;27609;51.002;5.354;2022-08-19T11:58:23;3.97;;;3.25;;
41921;SDS011;27609;51.002;5.354;2022-08-19T12:00:50;4.25;;;3.15;;
41921;SDS011;27609;51.002;5.354;2022-08-19T12:03:16;4.88;;;3.70;;
41921;SDS011;27609;51.002;5.354;2022-08-19T12:05:43;3.78;;;3.13;;
41921;SDS011;27609;51.002;5.354;2022-08-19T12:08:09;4.10;;;3.70;;
41921;SDS011;27609;51.002;5.354;2022-08-19T12:10:36;5.75;;;3.17;;
41921;SDS011;27609;51.002;5.354;2022-08-19T12:13:02;8.82;;;3.15;;
41921;SDS011;27609;51.002;5.354;2022-08-19T12:15:28;6.32;;;3.15;;
41921;SDS011;27609;51.002;5.354;2022-08-19T12:17:54;10.40;;;3.33;;
41921;SDS011;27609;51.002;5.354;2022-08-19T12:20:22;3.10;;;2.80;;
41921;SDS011;27609;51.002;5.354;2022-08-19T12:22:49;6.03;;;3.30;;
41921;SDS011;27609;51.002;5.354;2022-08-19T12:25:15;4.22;;;3.25;;
41921;SDS011;27609;51.002;5.354;2022-08-19T12:27:41;3.75;;;3.35;;
41921;SDS011;27609;51.002;5.354;2022-08-19T12:30:08;11.23;;;3.78;;
41921;SDS011;27609;51.002;5.354;2022-08-19T12:32:36;4.47;;;3.08;;
41921;SDS011;27609;51.002;5.354;2022-08-19T12:35:02;3.38;;;2.70;;
41921;SDS011;27609;51.002;5.354;2022-08-19T12:37:31;8.57;;;3.40;;
41921;SDS011;27609;51.002;5.354;2022-08-19T12:39:57;5.43;;;3.50;;
41921;SDS011;27609;51.002;5.354;2022-08-19T12:42:23;6.65;;;2.92;;
41921;SDS011;27609;51.002;5.354;2022-08-19T12:44:49;3.53;;;3.00;;
41921;SDS011;27609;51.002;5.354;2022-08-19T12:47:17;4.28;;;2.75;;
41921;SDS011;27609;51.002;5.354;2022-08-19T12:49:43;4.78;;;2.53;;
41921;SDS011;27609;51.002;5.354;2022-08-19T12:52:11;8.50;;;2.97;;
41921;SDS011;27609;51.002;5.354;2022-08-19T12:54:40;6.43;;;2.85;;
41921;SDS011;27609;51.002;5.354;2022-08-19T12:57:06;4.07;;;3.25;;
41921;SDS011;27609;51.002;5.354;2022-08-19T12:59:33;5.05;;;3.35;;
41921;SDS011;27609;51.002;5.354;2022-08-19T13:02:02;6.45;;;3.10;;
41921;SDS011;27609;51.002;5.354;2022-08-19T13:04:32;5.68;;;3.58;;
41921;SDS011;27609;51.002;5.354;2022-08-19T13:07:00;5.95;;;3.60;;
41921;SDS011;27609;51.002;5.354;2022-08-19T13:09:28;6.32;;;3.22;;
41921;SDS011;27609;51.002;5.354;2022-08-19T13:11:54;5.45;;;2.85;;
41921;SDS011;27609;51.002;5.354;2022-08-19T13:14:21;4.28;;;3.50;;
41921;SDS011;27609;51.002;5.354;2022-08-19T13:16:47;8.40;;;3.47;;
41921;SDS011;27609;51.002;5.354;2022-08-19T13:19:13;4.80;;;3.20;;
41921;SDS011;27609;51.002;5.354;2022-08-19T13:21:39;3.75;;;3.17;;
41921;SDS011;27609;51.002;5.354;2022-08-19T13:24:07;4.93;;;2.78;;
41921;SDS011;27609;51.002;5.354;2022-08-19T13:26:33;4.75;;;3.22;;
41921;SDS011;27609;51.002;5.354;2022-08-19T13:28:58;7.40;;;3.80;;
41921;SDS011;27609;51.002;5.354;2022-08-19T13:31:42;5.75;;;3.45;;
41921;SDS011;27609;51.002;5.354;2022-08-19T13:34:29;5.18;;;2.60;;
41921;SDS011;27609;51.002;5.354;2022-08-19T13:39:23;3.45;;;2.75;;
41921;SDS011;27609;51.002;5.354;2022-08-19T13:41:54;4.75;;;2.80;;
41921;SDS011;27609;51.002;5.354;2022-08-19T13:44:20;4.03;;;2.40;;
41921;SDS011;27609;51.002;5.354;2022-08-19T13:46:46;5.13;;;2.78;;
41921;SDS011;27609;51.002;5.354;2022-08-19T13:49:14;3.92;;;2.50;;
41921;SDS011;27609;51.002;5.354;2022-08-19T13:51:40;3.28;;;2.25;;
41921;SDS011;27609;51.002;5.354;2022-08-19T13:54:08;4.07;;;2.17;;
41921;SDS011;27609;51.002;5.354;2022-08-19T13:56:35;5.13;;;2.25;;
41921;SDS011;27609;51.002;5.354;2022-08-19T13:59:06;6.60;;;2.72;;
41921;SDS011;27609;51.002;5.354;2022-08-19T14:01:34;2.22;;;1.95;;
41921;SDS011;27609;51.002;5.354;2022-08-19T14:04:00;7.90;;;2.38;;
41921;SDS011;27609;51.002;5.354;2022-08-19T14:06:26;3.38;;;2.30;;
41921;SDS011;27609;51.002;5.354;2022-08-19T14:08:52;3.65;;;2.40;;
41921;SDS011;27609;51.002;5.354;2022-08-19T14:11:17;2.53;;;1.90;;
41921;SDS011;27609;51.002;5.354;2022-08-19T14:13:44;2.15;;;1.95;;
41921;SDS011;27609;51.002;5.354;2022-08-19T14:18:39;3.22;;;2.85;;
41921;SDS011;27609;51.002;5.354;2022-08-19T14:21:06;4.03;;;2.25;;
41921;SDS011;27609;51.002;5.354;2022-08-19T14:23:32;2.58;;;2.00;;
41921;SDS011;27609;51.002;5.354;2022-08-19T14:26:06;2.78;;;2.28;;
41921;SDS011;27609;51.002;5.354;2022-08-19T14:28:34;6.45;;;2.70;;
41921;SDS011;27609;51.002;5.354;2022-08-19T14:31:01;4.40;;;2.42;;
41921;SDS011;27609;51.002;5.354;2022-08-19T14:33:27;3.05;;;2.40;;
41921;SDS011;27609;51.002;5.354;2022-08-19T14:35:52;2.50;;;2.28;;
41921;SDS011;27609;51.002;5.354;2022-08-19T14:38:18;3.13;;;2.38;;
41921;SDS011;27609;51.002;5.354;2022-08-19T14:40:44;3.03;;;2.63;;
41921;SDS011;27609;51.002;5.354;2022-08-19T14:43:10;3.97;;;2.35;;
41921;SDS011;27609;51.002;5.354;2022-08-19T14:45:37;2.63;;;2.05;;
41921;SDS011;27609;51.002;5.354;2022-08-19T14:48:05;2.63;;;2.22;;
41921;SDS011;27609;51.002;5.354;2022-08-19T14:50:32;3.35;;;2.58;;
41921;SDS011;27609;51.002;5.354;2022-08-19T14:53:01;2.63;;;2.42;;
41921;SDS011;27609;51.002;5.354;2022-08-19T14:55:29;3.67;;;2.38;;
41921;SDS011;27609;51.002;5.354;2022-08-19T14:57:57;2.65;;;2.00;;
41921;SDS011;27609;51.002;5.354;2022-08-19T15:00:23;2.85;;;2.65;;
41921;SDS011;27609;51.002;5.354;2022-08-19T15:02:52;3.25;;;2.40;;
41921;SDS011;27609;51.002;5.354;2022-08-19T15:05:20;3.92;;;2.53;;
41921;SDS011;27609;51.002;5.354;2022-08-19T15:07:46;2.40;;;2.20;;
41921;SDS011;27609;51.002;5.354;2022-08-19T15:10:14;4.10;;;2.38;;